createdAt,value
2019-02-21T00:01:46.827Z,9.20
2019-02-21T00:04:17.178Z,8.95
2019-02-21T00:06:47.253Z,9.55
2019-02-21T00:09:17.654Z,8.68
2019-02-21T00:11:48.043Z,8.60
2019-02-21T00:14:18.476Z,9.00
2019-02-21T00:16:48.816Z,8.30
2019-02-21T00:19:18.885Z,8.18
2019-02-21T00:21:49.261Z,7.90
2019-02-21T00:24:19.323Z,6.70
2019-02-21T00:26:49.401Z,7.40
2019-02-21T00:29:19.679Z,6.28
2019-02-21T00:31:50.107Z,8.18
2019-02-21T00:34:20.429Z,6.50
2019-02-21T00:36:50.561Z,6.05
2019-02-21T00:39:20.872Z,7.17
2019-02-21T00:41:51.117Z,5.53
2019-02-21T00:44:21.491Z,6.25
2019-02-21T00:46:51.584Z,5.60
2019-02-21T00:49:21.605Z,7.22
2019-02-21T00:51:51.898Z,7.25
2019-02-21T00:54:22.029Z,6.58
2019-02-21T00:56:52.291Z,6.67
2019-02-21T00:59:22.363Z,7.50
2019-02-21T01:01:52.720Z,7.00
2019-02-21T01:04:23.772Z,7.95
2019-02-21T01:06:53.950Z,8.85
2019-02-21T01:09:23.958Z,9.35
2019-02-21T01:11:54.022Z,10.95
2019-02-21T01:14:24.351Z,10.72
2019-02-21T01:16:54.420Z,10.70
2019-02-21T01:19:24.687Z,10.95
2019-02-21T01:21:55.201Z,8.83
2019-02-21T01:24:25.538Z,8.53
2019-02-21T01:26:55.667Z,8.20
2019-02-21T01:29:25.933Z,8.30
2019-02-21T01:31:56.017Z,8.13
2019-02-21T01:34:26.042Z,7.42
2019-02-21T01:36:56.049Z,7.53
2019-02-21T01:39:26.089Z,7.78
2019-02-21T01:41:56.593Z,7.40
2019-02-21T01:44:26.694Z,8.30
2019-02-21T01:46:56.946Z,7.65
2019-02-21T01:49:27.017Z,7.15
2019-02-21T01:51:57.298Z,6.85
2019-02-21T01:54:27.422Z,7.03
2019-02-21T01:56:57.682Z,6.47
2019-02-21T01:59:27.778Z,6.67
2019-02-21T02:01:58.037Z,7.08
2019-02-21T02:04:28.178Z,7.62
2019-02-21T02:06:58.790Z,8.03
2019-02-21T02:09:29.194Z,7.60
2019-02-21T02:11:59.480Z,7.35
2019-02-21T02:14:29.552Z,7.40
2019-02-21T02:16:59.621Z,7.83
2019-02-21T02:19:29.718Z,7.78
2019-02-21T02:21:59.983Z,8.90
2019-02-21T02:24:30.264Z,9.38
2019-02-21T02:27:00.518Z,9.98
2019-02-21T02:29:30.880Z,10.48
2019-02-21T02:32:02.470Z,10.63
2019-02-21T02:34:32.621Z,11.03
2019-02-21T02:37:02.641Z,10.88
2019-02-21T02:39:32.987Z,10.63
2019-02-21T02:42:03.070Z,11.25
2019-02-21T02:44:33.080Z,10.18
2019-02-21T02:47:03.177Z,10.35
2019-02-21T02:49:33.174Z,9.80
2019-02-21T02:52:03.472Z,10.65
2019-02-21T02:54:33.560Z,11.45
2019-02-21T02:57:03.631Z,11.63
2019-02-21T02:59:40.656Z,13.28
2019-02-21T03:02:05.378Z,14.13
2019-02-21T03:04:35.439Z,14.63
2019-02-21T03:07:05.747Z,15.35
2019-02-21T03:09:35.810Z,14.43
2019-02-21T03:12:06.076Z,14.20
2019-02-21T03:14:36.429Z,15.15
2019-02-21T03:17:06.825Z,14.53
2019-02-21T03:19:38.133Z,14.60
2019-02-21T03:22:08.509Z,14.78
2019-02-21T03:24:38.639Z,13.32
2019-02-21T03:27:08.644Z,13.58
2019-02-21T03:29:38.619Z,13.53
2019-02-21T03:32:08.986Z,14.50
2019-02-21T03:34:39.317Z,13.95
2019-02-21T03:37:09.463Z,13.50
2019-02-21T03:39:39.464Z,12.75
2019-02-21T03:42:09.670Z,13.13
2019-02-21T03:44:39.934Z,11.75
2019-02-21T03:47:11.456Z,11.30
2019-02-21T03:49:41.464Z,11.73
2019-02-21T03:52:11.499Z,11.05
2019-02-21T03:54:41.758Z,11.60
2019-02-21T03:57:11.930Z,11.25
2019-02-21T03:59:41.968Z,12.37
2019-02-21T04:02:11.973Z,11.78
2019-02-21T04:04:42.310Z,12.10
2019-02-21T04:07:12.820Z,12.65
2019-02-21T04:09:42.912Z,13.03
2019-02-21T04:12:13.181Z,12.85
2019-02-21T04:14:43.268Z,13.70
2019-02-21T04:17:13.306Z,13.93
2019-02-21T04:19:43.675Z,14.65
2019-02-21T04:22:16.466Z,14.38
2019-02-21T04:24:46.782Z,14.68
2019-02-21T04:27:17.148Z,14.23
2019-02-21T04:29:47.218Z,16.35
2019-02-21T04:32:17.384Z,15.80
2019-02-21T04:34:47.561Z,16.60
2019-02-21T04:37:17.845Z,16.27
2019-02-21T04:39:47.967Z,17.50
2019-02-21T04:42:18.007Z,17.25
2019-02-21T04:44:48.297Z,16.87
2019-02-21T04:47:18.621Z,17.65
2019-02-21T04:49:48.717Z,18.70
2019-02-21T04:52:18.793Z,19.10
2019-02-21T04:54:48.803Z,19.48
2019-02-21T04:57:18.817Z,18.17
2019-02-21T04:59:49.117Z,19.52
2019-02-21T05:02:28.465Z,19.52
2019-02-21T05:04:51.327Z,19.60
2019-02-21T05:07:21.395Z,19.87
2019-02-21T05:09:57.915Z,21.40
2019-02-21T05:12:23.117Z,20.55
2019-02-21T05:14:53.407Z,19.40
2019-02-21T05:17:23.741Z,22.13
2019-02-21T05:19:53.843Z,21.23
2019-02-21T05:22:24.121Z,21.75
2019-02-21T05:24:54.446Z,20.92
2019-02-21T05:27:26.426Z,21.80
2019-02-21T05:29:56.766Z,22.32
2019-02-21T05:32:41.394Z,22.22
2019-02-21T05:37:56.833Z,22.90
2019-02-21T05:40:28.879Z,22.77
2019-02-21T05:43:15.852Z,26.85
2019-02-21T05:45:47.596Z,24.37
2019-02-21T05:48:31.225Z,25.00
2019-02-21T05:51:15.203Z,24.37
2019-02-21T05:53:46.968Z,25.48
2019-02-21T05:56:18.892Z,26.27
2019-02-21T05:58:59.824Z,24.90
2019-02-21T06:01:33.992Z,24.55
2019-02-21T06:04:05.927Z,26.15
2019-02-21T06:06:41.925Z,25.25
2019-02-21T06:11:48.694Z,26.77
2019-02-21T06:14:26.149Z,28.65
2019-02-21T06:16:59.613Z,27.95
2019-02-21T06:19:31.323Z,29.90
2019-02-21T06:22:10.437Z,28.65
2019-02-21T06:24:48.557Z,29.92
2019-02-21T06:27:25.960Z,29.85
2019-02-21T06:30:03.113Z,29.72
2019-02-21T06:32:33.647Z,29.27
2019-02-21T06:35:05.541Z,31.10
2019-02-21T06:37:37.788Z,31.82
2019-02-21T06:40:08.286Z,31.05
2019-02-21T06:42:38.646Z,32.98
2019-02-21T06:45:08.947Z,32.35
2019-02-21T06:47:38.985Z,33.80
2019-02-21T06:50:09.164Z,33.20
2019-02-21T06:52:40.657Z,34.63
2019-02-21T06:55:11.475Z,33.65
2019-02-21T06:57:43.169Z,34.53
2019-02-21T07:00:13.186Z,40.63
2019-02-21T07:02:43.216Z,37.33
2019-02-21T07:05:13.223Z,36.03
2019-02-21T07:07:43.539Z,35.88
2019-02-21T07:10:13.850Z,36.70
2019-02-21T07:12:44.000Z,36.25
2019-02-21T07:15:15.132Z,36.40
2019-02-21T07:17:49.513Z,36.93
2019-02-21T07:20:19.194Z,36.95
2019-02-21T07:22:49.330Z,38.08
2019-02-21T07:25:38.952Z,39.03
2019-02-21T07:28:13.441Z,38.13
2019-02-21T07:30:42.966Z,37.80
2019-02-21T07:33:12.852Z,39.55
2019-02-21T07:35:42.891Z,38.95
2019-02-21T07:38:13.152Z,37.53
2019-02-21T07:40:43.299Z,39.95
2019-02-21T07:43:13.625Z,39.20
2019-02-21T07:45:44.770Z,39.45
2019-02-21T07:48:15.071Z,38.08
2019-02-21T07:50:45.422Z,36.70
2019-02-21T07:53:15.526Z,39.20
2019-02-21T07:55:45.816Z,36.05
2019-02-21T07:58:15.908Z,37.55
2019-02-21T08:00:46.194Z,40.30
2019-02-21T08:03:16.335Z,38.70
2019-02-21T08:05:46.360Z,39.05
2019-02-21T08:08:16.366Z,39.38
2019-02-21T08:10:46.407Z,39.27
2019-02-21T08:13:16.416Z,41.08
2019-02-21T08:15:46.689Z,38.78
2019-02-21T08:18:17.097Z,37.33
2019-02-21T08:20:47.457Z,36.90
2019-02-21T08:23:17.792Z,33.83
2019-02-21T08:25:50.969Z,34.03
2019-02-21T08:28:20.979Z,34.35
2019-02-21T08:30:52.663Z,32.93
2019-02-21T08:33:24.444Z,32.50
2019-02-21T08:35:54.663Z,32.80
2019-02-21T08:38:24.896Z,30.45
2019-02-21T08:40:57.105Z,43.00
2019-02-21T08:43:26.653Z,34.27
2019-02-21T08:45:57.541Z,34.33
2019-02-21T08:48:28.156Z,39.75
2019-02-21T08:50:59.080Z,38.67
2019-02-21T08:53:29.419Z,35.45
2019-02-21T08:55:59.876Z,35.90
2019-02-21T08:58:30.690Z,40.73
2019-02-21T09:01:00.762Z,55.50
2019-02-21T09:03:31.022Z,56.13
2019-02-21T09:06:01.164Z,47.75
2019-02-21T09:08:35.090Z,37.42
2019-02-21T09:11:04.091Z,34.70
2019-02-21T09:13:34.574Z,36.98
2019-02-21T09:16:04.634Z,33.33
2019-02-21T09:18:34.684Z,34.10
2019-02-21T09:21:04.718Z,33.73
2019-02-21T09:23:35.239Z,31.73
2019-02-21T09:26:05.277Z,31.87
2019-02-21T09:28:35.281Z,29.82
2019-02-21T09:31:05.566Z,30.43
2019-02-21T09:33:37.260Z,32.15
2019-02-21T09:36:08.034Z,30.17
2019-02-21T09:38:38.170Z,30.30
2019-02-21T09:41:08.165Z,35.25
2019-02-21T09:43:38.457Z,34.85
2019-02-21T09:46:08.531Z,32.70
2019-02-21T09:48:38.633Z,31.00
2019-02-21T09:51:11.459Z,30.55
2019-02-21T09:53:41.467Z,29.75
2019-02-21T09:56:11.499Z,30.95
2019-02-21T09:58:41.756Z,31.50
2019-02-21T10:01:11.852Z,30.82
2019-02-21T10:03:44.089Z,32.38
2019-02-21T10:06:14.210Z,33.18
2019-02-21T10:08:44.583Z,32.93
2019-02-21T10:11:14.913Z,31.00
2019-02-21T10:13:45.006Z,31.77
2019-02-21T10:16:16.093Z,33.20
2019-02-21T10:18:46.194Z,34.80
2019-02-21T10:21:16.708Z,34.10
2019-02-21T10:23:46.803Z,32.78
2019-02-21T10:26:18.420Z,34.03
2019-02-21T10:28:48.431Z,33.60
2019-02-21T10:31:18.433Z,35.48
2019-02-21T10:33:48.467Z,36.48
2019-02-21T10:36:18.733Z,34.80
2019-02-21T10:38:49.106Z,35.43
2019-02-21T10:41:19.953Z,36.38
2019-02-21T10:43:51.948Z,38.55
2019-02-21T10:46:22.300Z,37.78
2019-02-21T10:48:52.442Z,40.23
2019-02-21T10:51:22.774Z,36.95
2019-02-21T10:53:53.110Z,38.92
2019-02-21T10:56:23.280Z,39.18
2019-02-21T10:58:53.546Z,38.90
2019-02-21T11:01:23.744Z,40.17
2019-02-21T11:03:53.998Z,39.95
2019-02-21T11:06:24.390Z,41.23
2019-02-21T11:08:55.856Z,39.88
2019-02-21T11:11:25.968Z,40.25
2019-02-21T11:13:55.975Z,39.38
2019-02-21T11:16:26.239Z,40.73
2019-02-21T11:18:56.809Z,40.80
2019-02-21T11:21:27.486Z,41.00
2019-02-21T11:23:57.458Z,41.02
2019-02-21T11:26:27.718Z,42.23
2019-02-21T11:28:58.113Z,41.83
2019-02-21T11:31:28.184Z,39.15
2019-02-21T11:33:58.194Z,39.18
2019-02-21T11:36:28.519Z,38.75
2019-02-21T11:38:58.858Z,39.18
2019-02-21T11:41:28.932Z,38.73
2019-02-21T11:43:59.234Z,38.48
2019-02-21T11:46:29.480Z,38.08
2019-02-21T11:49:00.557Z,38.17
2019-02-21T11:51:30.832Z,38.60
2019-02-21T11:54:01.241Z,37.90
2019-02-21T11:56:31.609Z,38.30
2019-02-21T11:59:16.132Z,39.08
2019-02-21T12:01:46.556Z,37.55
2019-02-21T12:04:19.728Z,39.08
2019-02-21T12:06:49.803Z,37.30
2019-02-21T12:09:20.926Z,38.25
2019-02-21T12:11:50.942Z,38.40
2019-02-21T12:14:22.416Z,37.03
2019-02-21T12:16:52.762Z,38.50
2019-02-21T12:19:23.245Z,36.53
2019-02-21T12:21:59.028Z,37.25
2019-02-21T12:24:26.216Z,37.90
2019-02-21T12:26:56.292Z,37.83
2019-02-21T12:29:27.809Z,38.00
2019-02-21T12:31:58.159Z,36.70
2019-02-21T12:34:28.525Z,38.15
2019-02-21T12:36:58.904Z,37.35
2019-02-21T12:39:29.031Z,36.60
2019-02-21T12:41:59.312Z,36.03
2019-02-21T12:44:29.405Z,37.55
2019-02-21T12:46:59.421Z,34.83
2019-02-21T12:49:29.704Z,36.90
2019-02-21T12:51:59.790Z,35.28
2019-02-21T12:54:30.091Z,32.55
2019-02-21T12:57:00.173Z,32.98
2019-02-21T12:59:30.220Z,31.15
2019-02-21T13:02:00.533Z,31.17
2019-02-21T13:04:33.264Z,28.83
2019-02-21T13:07:02.635Z,29.77
2019-02-21T13:09:32.962Z,27.62
2019-02-21T13:12:04.950Z,28.23
2019-02-21T13:14:35.003Z,29.12
2019-02-21T13:17:05.297Z,26.60
2019-02-21T13:19:36.761Z,26.02
2019-02-21T13:22:06.826Z,27.73
2019-02-21T13:24:36.846Z,26.40
2019-02-21T13:27:07.185Z,29.72
2019-02-21T13:29:37.307Z,27.10
2019-02-21T13:32:07.309Z,25.82
2019-02-21T13:34:39.028Z,23.10
2019-02-21T13:37:09.351Z,21.20
2019-02-21T13:39:39.732Z,19.87
2019-02-21T13:42:10.088Z,19.30
2019-02-21T13:44:40.418Z,19.42
2019-02-21T13:47:10.495Z,18.75
2019-02-21T13:49:40.498Z,21.60
2019-02-21T13:52:10.860Z,18.57
2019-02-21T13:54:41.264Z,19.98
2019-02-21T13:57:11.609Z,20.80
2019-02-21T13:59:44.275Z,20.90
2019-02-21T14:02:15.348Z,22.73
2019-02-21T14:04:45.890Z,25.85
2019-02-21T14:07:16.267Z,25.48
2019-02-21T14:09:46.694Z,23.55
2019-02-21T14:12:16.825Z,23.10
2019-02-21T14:14:47.090Z,23.27
2019-02-21T14:17:17.413Z,24.27
2019-02-21T14:19:47.413Z,24.77
2019-02-21T14:22:17.467Z,19.10
2019-02-21T14:24:47.779Z,18.20
2019-02-21T14:27:17.867Z,17.62
2019-02-21T14:29:48.186Z,16.95
2019-02-21T14:32:18.274Z,20.35
2019-02-21T14:34:48.564Z,17.70
2019-02-21T14:37:18.906Z,16.95
2019-02-21T14:39:48.968Z,13.75
2019-02-21T14:42:18.993Z,11.85
2019-02-21T14:44:50.016Z,13.13
2019-02-21T14:47:20.085Z,11.48
2019-02-21T14:49:50.103Z,9.18
2019-02-21T14:52:20.113Z,10.60
2019-02-21T14:54:50.389Z,9.50
2019-02-21T14:57:22.134Z,11.60
2019-02-21T14:59:53.561Z,10.38
2019-02-21T15:02:23.657Z,11.95
2019-02-21T15:04:54.733Z,11.03
2019-02-21T15:07:26.349Z,12.88
2019-02-21T15:09:58.305Z,12.88
2019-02-21T15:12:28.626Z,14.47
2019-02-21T15:14:58.723Z,16.10
2019-02-21T15:17:29.796Z,16.25
2019-02-21T15:20:00.094Z,14.13
2019-02-21T15:22:32.098Z,13.10
2019-02-21T15:25:02.460Z,14.25
2019-02-21T15:27:32.511Z,13.10
2019-02-21T15:30:02.546Z,13.93
2019-02-21T15:32:34.455Z,13.32
2019-02-21T15:35:05.275Z,14.30
2019-02-21T15:37:35.439Z,13.28
2019-02-21T15:40:09.379Z,13.25
2019-02-21T15:42:39.677Z,14.58
2019-02-21T15:45:22.320Z,15.43
2019-02-21T15:47:45.061Z,15.25
2019-02-21T15:50:19.532Z,16.10
2019-02-21T15:52:49.114Z,18.10
2019-02-21T15:55:20.348Z,17.12
2019-02-21T15:58:02.676Z,16.48
2019-02-21T16:00:24.163Z,17.55
2019-02-21T16:02:54.163Z,19.27
2019-02-21T16:05:26.104Z,20.02
2019-02-21T16:07:56.192Z,21.05
2019-02-21T16:10:29.916Z,19.15
2019-02-21T16:13:02.266Z,18.70
2019-02-21T16:15:31.779Z,19.70
2019-02-21T16:18:01.818Z,20.15
2019-02-21T16:20:31.838Z,19.82
2019-02-21T16:23:01.865Z,29.02
2019-02-21T16:25:33.442Z,22.02
2019-02-21T16:28:03.476Z,27.25
2019-02-21T16:30:36.291Z,21.02
2019-02-21T16:33:06.547Z,21.77
2019-02-21T16:35:36.665Z,20.35
2019-02-21T16:38:06.848Z,18.60
2019-02-21T16:40:37.312Z,18.20
2019-02-21T16:43:07.724Z,19.85
2019-02-21T16:45:43.450Z,18.50
2019-02-21T16:48:09.940Z,18.90
2019-02-21T16:50:39.978Z,18.70
2019-02-21T16:53:09.985Z,20.37
2019-02-21T16:55:40.036Z,19.90
2019-02-21T16:58:10.050Z,20.57
2019-02-21T17:00:52.455Z,19.55
2019-02-21T17:03:12.304Z,21.15
2019-02-21T17:05:42.337Z,21.57
2019-02-21T17:08:12.333Z,22.00
2019-02-21T17:10:42.357Z,19.98
2019-02-21T17:13:12.376Z,22.58
2019-02-21T17:15:42.434Z,21.90
2019-02-21T17:18:12.495Z,21.07
2019-02-21T17:20:42.757Z,20.25
2019-02-21T17:23:22.432Z,21.75
2019-02-21T17:25:46.789Z,21.48
2019-02-21T17:28:17.051Z,21.05
2019-02-21T17:30:47.164Z,22.20
2019-02-21T17:33:17.192Z,24.50
2019-02-21T17:35:47.294Z,24.30
2019-02-21T17:38:17.295Z,25.43
2019-02-21T17:40:47.389Z,24.25
2019-02-21T17:43:17.393Z,26.35
2019-02-21T17:45:47.481Z,27.77
2019-02-21T17:48:17.547Z,27.87
2019-02-21T17:50:47.819Z,28.77
2019-02-21T17:53:17.975Z,25.75
2019-02-21T17:55:48.004Z,25.05
2019-02-21T17:58:17.994Z,24.07
2019-02-21T18:00:48.681Z,26.27
2019-02-21T18:03:18.808Z,24.30
2019-02-21T18:05:49.238Z,24.27
2019-02-21T18:08:19.261Z,26.70
2019-02-21T18:10:49.264Z,26.75
2019-02-21T18:13:19.269Z,32.63
2019-02-21T18:15:49.307Z,26.17
2019-02-21T18:18:22.143Z,28.05
2019-02-21T18:20:52.445Z,26.60
2019-02-21T18:23:22.786Z,25.32
2019-02-21T18:25:58.022Z,26.10
2019-02-21T18:28:28.140Z,34.65
2019-02-21T18:31:15.852Z,31.87
2019-02-21T18:33:45.885Z,31.17
2019-02-21T18:36:16.177Z,25.60
2019-02-21T18:38:46.509Z,27.20
2019-02-21T18:41:16.582Z,26.27
2019-02-21T18:43:46.885Z,27.58
2019-02-21T18:46:20.445Z,24.32
2019-02-21T18:48:51.954Z,27.27
2019-02-21T18:51:22.065Z,26.45
2019-02-21T18:53:52.039Z,27.85
2019-02-21T18:56:22.307Z,28.38
2019-02-21T18:58:52.430Z,30.60
2019-02-21T19:01:22.556Z,30.35
2019-02-21T19:03:52.844Z,28.95
2019-02-21T19:06:23.023Z,28.57
2019-02-21T19:08:53.355Z,36.55
2019-02-21T19:11:23.423Z,32.83
2019-02-21T19:13:53.459Z,33.70
2019-02-21T19:16:23.937Z,33.35
2019-02-21T19:18:54.152Z,29.07
2019-02-21T19:21:24.502Z,29.80
2019-02-21T19:23:54.610Z,23.45
2019-02-21T19:26:27.755Z,29.25
2019-02-21T19:28:58.068Z,32.33
2019-02-21T19:31:31.310Z,34.00
2019-02-21T19:34:01.582Z,33.02
2019-02-21T19:36:31.951Z,26.60
2019-02-21T19:39:04.897Z,22.70
2019-02-21T19:41:36.702Z,22.87
2019-02-21T19:44:09.177Z,24.52
2019-02-21T19:46:39.043Z,25.48
2019-02-21T19:49:14.017Z,22.37
2019-02-21T19:51:44.240Z,25.57
2019-02-21T19:54:14.336Z,27.60
2019-02-21T19:56:44.334Z,26.80
2019-02-21T19:59:14.651Z,26.87
2019-02-21T20:01:47.128Z,25.62
2019-02-21T20:04:17.365Z,27.07
2019-02-21T20:06:47.720Z,29.35
2019-02-21T20:09:18.179Z,26.95
2019-02-21T20:11:48.593Z,28.23
2019-02-21T20:14:18.701Z,26.30
2019-02-21T20:16:50.223Z,31.52
2019-02-21T20:19:20.636Z,25.82
2019-02-21T20:21:50.975Z,25.32
2019-02-21T20:24:21.109Z,20.10
2019-02-21T20:26:51.146Z,17.37
2019-02-21T20:29:21.160Z,16.85
2019-02-21T20:31:51.238Z,14.28
2019-02-21T20:34:22.777Z,13.08
2019-02-21T20:36:52.855Z,13.22
2019-02-21T20:39:23.114Z,13.30
2019-02-21T20:41:53.503Z,13.15
2019-02-21T20:44:23.633Z,15.32
2019-02-21T20:46:53.811Z,12.55
2019-02-21T20:49:23.871Z,12.07
2019-02-21T20:51:53.988Z,11.30
2019-02-21T20:54:24.279Z,10.85
2019-02-21T20:56:54.676Z,11.25
2019-02-21T20:59:26.033Z,12.03
2019-02-21T21:01:56.166Z,11.85
2019-02-21T21:04:26.710Z,9.50
2019-02-21T21:06:57.060Z,11.57
2019-02-21T21:09:27.451Z,9.05
2019-02-21T21:12:00.555Z,8.23
2019-02-21T21:14:30.566Z,11.00
2019-02-21T21:17:00.612Z,9.53
2019-02-21T21:19:36.492Z,10.23
2019-02-21T21:22:06.484Z,10.05
2019-02-21T21:24:36.761Z,9.58
2019-02-21T21:27:07.123Z,16.42
2019-02-21T21:29:37.540Z,12.20
2019-02-21T21:32:07.887Z,11.12
2019-02-21T21:34:37.980Z,11.40
2019-02-21T21:37:08.292Z,11.50
2019-02-21T21:39:39.477Z,10.00
2019-02-21T21:42:09.808Z,10.60
2019-02-21T21:44:39.952Z,11.83
2019-02-21T21:47:10.264Z,10.32
2019-02-21T21:49:40.608Z,12.80
2019-02-21T21:52:10.938Z,11.45
2019-02-21T21:54:41.072Z,9.38
2019-02-21T21:57:11.083Z,11.40
2019-02-21T21:59:41.082Z,11.90
2019-02-21T22:02:11.342Z,11.10
2019-02-21T22:04:41.730Z,11.50
2019-02-21T22:07:11.815Z,8.68
2019-02-21T22:09:41.833Z,7.85
2019-02-21T22:12:12.102Z,8.08
2019-02-21T22:14:42.422Z,9.65
2019-02-21T22:17:12.784Z,9.18
2019-02-21T22:19:43.112Z,10.40
2019-02-21T22:22:13.184Z,9.88
2019-02-21T22:24:43.473Z,10.98
2019-02-21T22:27:13.567Z,11.28
2019-02-21T22:29:43.611Z,12.93
2019-02-21T22:32:13.596Z,7.87
2019-02-21T22:34:43.875Z,9.18
2019-02-21T22:37:13.932Z,8.50
2019-02-21T22:39:44.234Z,9.10
2019-02-21T22:42:14.565Z,5.20
2019-02-21T22:44:44.891Z,7.47
2019-02-21T22:47:15.926Z,9.40
2019-02-21T22:49:46.281Z,8.05
2019-02-21T22:52:17.163Z,8.00
2019-02-21T22:54:47.427Z,6.60
2019-02-21T22:57:17.495Z,5.47
2019-02-21T22:59:47.763Z,7.45
2019-02-21T23:02:19.184Z,8.93
2019-02-21T23:05:05.569Z,7.03
2019-02-21T23:07:38.694Z,4.00
2019-02-21T23:10:08.945Z,5.20
2019-02-21T23:12:39.682Z,3.87
2019-02-21T23:15:09.820Z,4.50
2019-02-21T23:17:39.874Z,4.92
2019-02-21T23:20:09.864Z,3.45
2019-02-21T23:22:39.937Z,4.15
2019-02-21T23:25:09.972Z,5.62
2019-02-21T23:27:40.265Z,5.35
2019-02-21T23:30:11.461Z,5.55
2019-02-21T23:32:41.791Z,4.40
2019-02-21T23:35:13.531Z,5.20
2019-02-21T23:37:43.559Z,4.85
2019-02-21T23:40:14.628Z,4.83
2019-02-21T23:42:44.925Z,4.80
2019-02-21T23:45:15.306Z,4.10
2019-02-21T23:47:49.715Z,4.72
2019-02-21T23:50:17.431Z,5.00
2019-02-21T23:52:47.456Z,5.15
2019-02-21T23:55:17.733Z,5.60
2019-02-21T23:57:48.087Z,5.08
